Time;durP1;ratioP1;P1;durP2;ratioP2;P2;SDS_P1;SDS_P2;PMS_P1;PMS_P2;Temp;Humidity;BMP_temperature;BMP_pressure;BME280_temperature;BME280_humidity;BME280_pressure;Samples;Min_cycle;Max_cycle;Signal;HPM_P1;HPM_P2
2022/12/13 00:00:57;;;;;;;61.50;27.20;;;-1.10;64.30;;;;;;2344426;57;21050;-50
2022/12/13 00:03:25;;;;;;;82.65;34.40;;;-1.10;64.40;;;;;;2344147;57;21550;-53
2022/12/13 00:05:53;;;;;;;86.00;34.17;;;-1.10;64.40;;;;;;2344479;57;21054;-53
2022/12/13 00:08:20;;;;;;;89.75;37.70;;;-1.10;65.20;;;;;;2345933;57;21034;-51
2022/12/13 00:10:57;;;;;;;80.53;32.60;;;-1.10;64.60;;;;;;2345211;57;21006;-50
2022/12/13 00:13:24;;;;;;;82.95;34.03;;;-1.20;64.70;;;;;;2345454;57;21025;-51
2022/12/13 00:15:56;;;;;;;80.75;31.70;;;-1.10;64.80;;;;;;2344562;57;21534;-53
2022/12/13 00:18:23;;;;;;;71.60;30.52;;;-1.20;64.80;;;;;;2344979;57;21117;-54
2022/12/13 00:20:51;;;;;;;67.65;27.92;;;-1.10;64.90;;;;;;2344378;57;21145;-53
2022/12/13 00:23:18;;;;;;;59.00;25.95;;;-1.10;64.90;;;;;;2344372;57;21057;-53
2022/12/13 00:25:46;;;;;;;61.13;27.48;;;-1.10;64.90;;;;;;2344321;57;21054;-50
2022/12/13 00:28:13;;;;;;;57.92;26.12;;;-1.10;64.80;;;;;;2344202;57;21385;-50
2022/12/13 00:30:41;;;;;;;65.45;26.77;;;-1.10;64.70;;;;;;2344681;57;21082;-50
2022/12/13 00:33:08;;;;;;;60.75;27.30;;;-1.10;64.70;;;;;;2345386;57;21129;-50
2022/12/13 00:38:15;;;;;;;61.13;26.02;;;-1.10;65.00;;;;;;2355714;57;22078;-51
2022/12/13 00:40:42;;;;;;;63.25;27.15;;;-1.10;65.00;;;;;;2346842;57;21104;-49
2022/12/13 00:43:10;;;;;;;63.28;26.27;;;-1.10;65.30;;;;;;2345899;57;21526;-55
2022/12/13 00:45:37;;;;;;;69.32;27.30;;;-1.10;65.50;;;;;;2345494;57;21037;-50
2022/12/13 00:48:05;;;;;;;66.72;27.00;;;-1.10;65.70;;;;;;2345603;57;21606;-49
2022/12/13 00:50:33;;;;;;;64.07;26.77;;;-1.10;65.90;;;;;;2345549;57;21053;-50
2022/12/13 00:53:01;;;;;;;58.50;25.33;;;-1.10;66.10;;;;;;2345125;57;21568;-53
2022/12/13 00:55:28;;;;;;;66.43;26.98;;;-1.10;66.30;;;;;;2345235;57;21094;-50
2022/12/13 00:57:55;;;;;;;61.53;27.48;;;-1.20;66.40;;;;;;2345404;57;21137;-53
2022/12/13 01:00:24;;;;;;;63.83;26.15;;;-1.20;66.60;;;;;;2344558;57;21038;-51
2022/12/13 01:02:53;;;;;;;76.15;29.77;;;-1.10;66.90;;;;;;2346833;57;21574;-51
2022/12/13 01:05:20;;;;;;;63.10;27.90;;;-1.10;67.10;;;;;;2346986;57;21022;-52
2022/12/13 01:07:47;;;;;;;63.97;28.38;;;-1.10;67.20;;;;;;2346159;57;21041;-48
2022/12/13 01:10:14;;;;;;;62.78;27.23;;;-1.10;67.40;;;;;;2344769;57;21065;-48
2022/12/13 01:12:42;;;;;;;61.85;27.73;;;-1.00;67.50;;;;;;2345525;57;21050;-48
2022/12/13 01:15:10;;;;;;;69.65;29.50;;;-1.00;67.60;;;;;;2345512;57;21042;-48
2022/12/13 01:17:37;;;;;;;61.92;25.73;;;-1.00;67.60;;;;;;2344834;57;21106;-50
2022/12/13 01:20:08;;;;;;;63.25;25.98;;;-1.00;67.70;;;;;;2345364;57;21042;-49
2022/12/13 01:22:35;;;;;;;58.75;25.52;;;-0.90;67.90;;;;;;2346320;57;21046;-49
2022/12/13 01:25:03;;;;;;;65.62;25.75;;;-0.90;67.90;;;;;;2346144;57;21034;-50
2022/12/13 01:27:30;;;;;;;62.58;27.45;;;-0.80;67.80;;;;;;2346407;57;21097;-52
2022/12/13 01:29:57;;;;;;;65.28;26.42;;;-0.70;67.70;;;;;;2345466;57;21041;-51
2022/12/13 01:35:00;;;;;;;59.85;26.02;;;-0.70;67.70;;;;;;2355048;57;22140;-53
2022/12/13 01:37:27;;;;;;;64.95;28.20;;;-0.60;67.80;;;;;;2346866;57;21053;-51
2022/12/13 01:39:55;;;;;;;62.35;25.62;;;-0.70;67.70;;;;;;2346324;57;21101;-50
2022/12/13 01:42:22;;;;;;;61.72;27.37;;;-0.70;67.60;;;;;;2346316;57;21033;-49
2022/12/13 01:45:03;;;;;;;66.10;25.37;;;-0.70;67.60;;;;;;2345811;57;21057;-49
2022/12/13 01:47:36;;;;;;;63.87;25.00;;;-0.70;67.50;;;;;;2346911;57;21010;-53
2022/12/13 01:50:08;;;;;;;60.25;26.35;;;-0.60;67.60;;;;;;2346312;57;21022;-53
2022/12/13 01:52:36;;;;;;;63.78;26.52;;;-0.60;67.60;;;;;;2345643;57;21093;-51
2022/12/13 01:55:06;;;;;;;59.25;25.45;;;-0.60;67.50;;;;;;2346768;57;21629;-50
2022/12/13 01:57:36;;;;;;;57.17;26.20;;;-0.60;67.40;;;;;;2346811;57;21022;-54
2022/12/13 02:00:06;;;;;;;58.85;25.12;;;-0.60;67.50;;;;;;2346751;57;21589;-53
2022/12/13 02:02:33;;;;;;;57.67;24.70;;;-0.60;67.40;;;;;;2345796;57;21078;-53
2022/12/13 02:05:06;;;;;;;67.12;26.50;;;-0.50;67.30;;;;;;2345523;57;21082;-52
2022/12/13 02:10:11;;;;;;;60.15;25.88;;;-0.50;67.00;;;;;;2355012;57;22149;-51
2022/12/13 02:12:40;;;;;;;58.95;24.83;;;-0.50;66.60;;;;;;2363019;56;21282;-52
2022/12/13 02:15:13;;;;;;;57.33;24.95;;;-0.50;66.40;;;;;;2375040;56;21654;-49
2022/12/13 02:17:56;;;;;;;58.35;24.80;;;-0.50;66.20;;;;;;2375195;56;21132;-48
2022/12/13 02:20:50;;;;;;;56.50;24.23;;;-0.60;66.10;;;;;;2374234;56;21119;-50
2022/12/13 02:26:39;;;;;;;57.05;24.37;;;-0.60;66.30;;;;;;2354687;57;22054;-53
2022/12/13 02:29:37;;;;;;;54.58;24.58;;;-0.60;66.60;;;;;;2347095;57;21049;-53
2022/12/13 02:34:50;;;;;;;51.10;23.70;;;-0.70;66.40;;;;;;2354879;57;22109;-52
2022/12/13 02:37:23;;;;;;;62.22;27.02;;;-0.70;66.30;;;;;;2345175;57;21137;-50
2022/12/13 02:39:56;;;;;;;61.92;25.48;;;-0.70;66.20;;;;;;2345589;57;21553;-49
2022/12/13 02:42:29;;;;;;;64.50;26.73;;;-0.70;66.10;;;;;;2347463;57;21515;-48
2022/12/13 02:44:57;;;;;;;;;;;-0.70;66.10;;;;;;2350545;57;21499;-48
2022/12/13 02:47:26;;;;;;;56.15;22.80;;;-0.60;66.20;;;;;;2346600;57;20046;-52
2022/12/13 02:49:56;;;;;;;62.88;25.48;;;-0.70;65.90;;;;;;2346863;57;21010;-50
2022/12/13 02:52:26;;;;;;;70.65;26.20;;;-0.70;66.10;;;;;;2345786;57;21105;-49
2022/12/13 02:57:32;;;;;;;70.18;32.63;;;-0.80;66.30;;;;;;2335210;57;27745;-51
2022/12/13 03:00:02;;;;;;;58.33;27.37;;;-1.20;68.10;;;;;;2346945;57;21049;-50
2022/12/13 03:02:42;;;;;;;57.45;25.67;;;-1.00;68.00;;;;;;2360982;56;21116;-51
2022/12/13 03:08:16;;;;;;;63.03;26.98;;;-0.80;66.70;;;;;;2374199;56;21103;-49
2022/12/13 03:10:49;;;;;;;58.45;24.52;;;-0.80;66.40;;;;;;2375404;56;21847;-49
2022/12/13 03:13:37;;;;;;;56.58;25.62;;;-0.80;66.40;;;;;;2373987;56;21100;-53
2022/12/13 03:16:11;;;;;;;52.00;22.95;;;-0.80;66.10;;;;;;2374743;56;21056;-51
2022/12/13 03:18:40;;;;;;;58.80;25.52;;;-0.80;65.90;;;;;;2374257;56;21354;-51
2022/12/13 03:21:09;;;;;;;60.25;25.33;;;-0.80;65.90;;;;;;2374359;56;21670;-49
2022/12/13 03:23:36;;;;;;;60.85;24.98;;;-0.80;66.00;;;;;;2374211;56;21099;-49
2022/12/13 03:26:08;;;;;;;60.20;24.95;;;-0.90;65.80;;;;;;2374339;56;21876;-53
2022/12/13 03:28:36;;;;;;;63.10;26.20;;;-0.80;66.10;;;;;;2375030;56;21087;-51
2022/12/13 03:31:03;;;;;;;65.57;26.48;;;-0.80;66.20;;;;;;2373931;56;21147;-50
2022/12/13 03:33:30;;;;;;;66.80;27.15;;;-0.80;66.20;;;;;;2374400;56;21052;-51
2022/12/13 03:35:58;;;;;;;62.92;26.80;;;-0.80;66.00;;;;;;2374684;56;21524;-50
2022/12/13 03:38:26;;;;;;;60.28;24.42;;;-0.90;65.80;;;;;;2375648;56;21579;-53
2022/12/13 03:40:56;;;;;;;62.25;25.00;;;-0.90;65.70;;;;;;2375565;56;21118;-50
2022/12/13 03:43:23;;;;;;;66.70;26.98;;;-0.90;65.50;;;;;;2375731;56;21097;-51
2022/12/13 03:45:51;;;;;;;62.53;25.60;;;-0.90;65.40;;;;;;2375386;56;21106;-50
2022/12/13 03:48:18;;;;;;;70.57;28.33;;;-0.90;65.50;;;;;;2373694;56;21059;-51
2022/12/13 03:50:45;;;;;;;67.37;27.98;;;-0.90;65.50;;;;;;2374511;56;21040;-50
2022/12/13 03:53:13;;;;;;;70.80;26.65;;;-0.90;65.40;;;;;;2374299;56;21059;-50
2022/12/13 03:55:40;;;;;;;63.20;27.17;;;-0.90;65.30;;;;;;2374431;56;21540;-53
2022/12/13 03:58:07;;;;;;;78.20;28.40;;;-0.90;65.00;;;;;;2374796;56;21130;-53
2022/12/13 04:00:34;;;;;;;68.57;27.98;;;-1.00;64.70;;;;;;2375144;56;21028;-50
2022/12/13 04:03:01;;;;;;;75.53;27.02;;;-1.00;64.70;;;;;;2374581;56;22166;-50
2022/12/13 04:05:29;;;;;;;65.95;27.70;;;-1.00;64.60;;;;;;2374372;56;21094;-49
2022/12/13 04:07:57;;;;;;;68.90;27.05;;;-1.00;64.70;;;;;;2374037;56;21044;-51
2022/12/13 04:10:24;;;;;;;58.50;23.65;;;-1.10;64.50;;;;;;2373565;56;21055;-53
2022/12/13 04:15:36;;;;;;;62.80;24.85;;;-1.10;64.60;;;;;;2373115;56;21066;-51
2022/12/13 04:18:04;;;;;;;55.97;23.90;;;-1.10;64.50;;;;;;2373527;56;21047;-50
2022/12/13 04:20:32;;;;;;;62.42;26.00;;;-1.20;64.50;;;;;;2373390;56;21611;-53
2022/12/13 04:22:59;;;;;;;61.70;27.27;;;-1.20;64.50;;;;;;2373214;56;21615;-52
2022/12/13 04:25:26;;;;;;;61.60;25.50;;;-1.20;64.60;;;;;;2373118;56;21043;-50
2022/12/13 04:27:54;;;;;;;59.67;23.80;;;-1.30;64.50;;;;;;2373427;56;21115;-53
2022/12/13 04:30:21;;;;;;;65.80;25.48;;;-1.30;64.60;;;;;;2372652;56;21622;-51
2022/12/13 04:32:48;;;;;;;60.92;24.58;;;-1.30;64.80;;;;;;2371864;56;21043;-51
2022/12/13 04:35:15;;;;;;;56.28;24.00;;;-1.30;64.80;;;;;;2373674;56;21055;-52
2022/12/13 04:37:43;;;;;;;57.13;25.75;;;-1.30;64.90;;;;;;2373022;56;21036;-54
2022/12/13 04:40:11;;;;;;;54.72;23.67;;;-1.30;65.00;;;;;;2372865;56;21457;-50
2022/12/13 04:42:39;;;;;;;61.47;25.70;;;-1.40;64.90;;;;;;2373429;56;21102;-53
2022/12/13 04:45:12;;;;;;;60.12;26.15;;;-1.30;65.10;;;;;;2372908;56;21602;-51
2022/12/13 04:47:39;;;;;;;60.47;24.27;;;-1.30;65.30;;;;;;2373059;56;21596;-51
2022/12/13 04:50:08;;;;;;;59.72;23.80;;;-1.30;65.40;;;;;;2373319;56;21052;-53
2022/12/13 04:55:11;;;;;;;70.53;34.03;;;-1.30;65.40;;;;;;2333962;57;28872;-52
2022/12/13 04:57:38;;;;;;;66.10;27.90;;;-1.70;66.40;;;;;;2346225;57;21121;-50
2022/12/13 05:00:09;;;;;;;59.45;25.45;;;-1.40;66.70;;;;;;2346672;57;21038;-52
2022/12/13 05:02:36;;;;;;;60.55;24.42;;;-1.30;66.10;;;;;;2345655;57;21046;-51
2022/12/13 05:05:03;;;;;;;56.40;24.92;;;-1.20;65.70;;;;;;2344582;57;21042;-50
2022/12/13 05:07:31;;;;;;;61.90;26.30;;;-1.20;65.40;;;;;;2344983;57;21328;-49
2022/12/13 05:09:58;;;;;;;58.87;23.75;;;-1.20;65.40;;;;;;2343909;57;21018;-53
2022/12/13 05:12:25;;;;;;;59.67;24.52;;;-1.20;65.50;;;;;;2344189;57;21117;-48
2022/12/13 05:14:53;;;;;;;56.97;25.08;;;-1.20;65.80;;;;;;2345147;57;21558;-48
2022/12/13 05:17:20;;;;;;;68.68;25.52;;;-1.20;66.20;;;;;;2345483;57;21050;-49
2022/12/13 05:19:47;;;;;;;59.30;25.27;;;-1.20;66.60;;;;;;2343875;57;21073;-50
2022/12/13 05:22:14;;;;;;;54.72;21.65;;;-1.20;66.90;;;;;;2344816;57;21157;-49
2022/12/13 05:24:43;;;;;;;57.88;23.77;;;-1.20;67.30;;;;;;2343880;57;21046;-51
2022/12/13 05:27:11;;;;;;;51.47;22.27;;;-1.10;67.70;;;;;;2344923;57;21018;-50
2022/12/13 05:29:38;;;;;;;62.08;24.70;;;-1.10;67.80;;;;;;2345029;57;21663;-52
2022/12/13 05:32:05;;;;;;;56.42;22.65;;;-1.00;68.20;;;;;;2345042;57;21550;-49
2022/12/13 05:34:32;;;;;;;57.05;24.65;;;-1.00;67.70;;;;;;2344428;57;21121;-51
2022/12/13 05:37:00;;;;;;;59.70;24.50;;;-0.90;67.70;;;;;;2344528;57;21096;-50
2022/12/13 05:39:27;;;;;;;59.15;24.65;;;-0.80;67.40;;;;;;2345642;57;21062;-51
2022/12/13 05:41:56;;;;;;;54.38;22.98;;;-0.80;67.50;;;;;;2345749;57;21048;-49
2022/12/13 05:44:23;;;;;;;65.43;26.48;;;-0.80;67.70;;;;;;2345542;57;21660;-49
2022/12/13 05:46:50;;;;;;;63.28;26.25;;;-0.70;68.10;;;;;;2345916;57;21018;-49
2022/12/13 05:49:18;;;;;;;64.97;26.83;;;-0.70;68.20;;;;;;2345827;57;21046;-50
2022/12/13 05:51:45;;;;;;;58.53;24.85;;;-0.70;68.30;;;;;;2345474;57;21094;-51
2022/12/13 05:54:12;;;;;;;55.12;23.27;;;-0.60;68.40;;;;;;2344460;57;21109;-53
2022/12/13 05:56:39;;;;;;;63.08;26.58;;;-0.60;68.60;;;;;;2345726;57;21069;-51
2022/12/13 05:59:06;;;;;;;58.78;25.35;;;-0.60;68.60;;;;;;2345210;57;21125;-52
2022/12/13 06:01:33;;;;;;;61.78;25.83;;;-0.60;68.90;;;;;;2345192;57;21624;-53
2022/12/13 06:04:00;;;;;;;62.38;24.42;;;-0.50;69.20;;;;;;2344909;57;21130;-52
2022/12/13 06:06:27;;;;;;;64.93;26.35;;;-0.50;69.40;;;;;;2344379;57;21050;-55
2022/12/13 06:08:55;;;;;;;56.10;23.48;;;-0.40;69.40;;;;;;2344031;57;21042;-53
2022/12/13 06:11:22;;;;;;;64.30;25.80;;;-0.30;69.40;;;;;;2344463;57;21050;-51
2022/12/13 06:13:51;;;;;;;56.20;23.52;;;-0.30;69.30;;;;;;2344578;57;21130;-54
2022/12/13 06:16:18;;;;;;;50.85;23.77;;;-0.30;69.10;;;;;;2345896;57;21588;-54
2022/12/13 06:18:46;;;;;;;63.70;24.85;;;-0.20;69.20;;;;;;2344650;57;21105;-51
2022/12/13 06:21:13;;;;;;;59.28;23.17;;;-0.20;69.90;;;;;;2344000;57;21058;-46
2022/12/13 06:23:40;;;;;;;53.50;22.77;;;-0.20;69.20;;;;;;2344424;57;21535;-46
2022/12/13 06:26:08;;;;;;;61.58;24.15;;;-0.10;69.40;;;;;;2343673;57;21038;-46
2022/12/13 06:28:35;;;;;;;58.45;24.17;;;-0.10;69.50;;;;;;2344207;57;21165;-49
2022/12/13 06:31:03;;;;;;;58.78;23.65;;;-0.10;69.50;;;;;;2344808;57;21062;-49
2022/12/13 06:33:34;;;;;;;56.37;23.65;;;-0.10;69.60;;;;;;2344699;57;21062;-49
2022/12/13 06:36:02;;;;;;;57.10;22.90;;;0.00;69.50;;;;;;2344588;57;21066;-47
2022/12/13 06:38:30;;;;;;;60.28;23.87;;;0.00;69.40;;;;;;2344842;57;21105;-48
2022/12/13 06:41:07;;;;;;;58.03;23.50;;;0.00;69.30;;;;;;2344994;57;21583;-47
2022/12/13 06:43:35;;;;;;;56.83;23.50;;;0.00;69.10;;;;;;2344156;57;21041;-47
2022/12/13 06:46:04;;;;;;;57.33;22.37;;;0.10;69.00;;;;;;2344432;57;21400;-50
2022/12/13 06:48:31;;;;;;;45.22;21.50;;;0.10;69.00;;;;;;2344858;57;21586;-49
2022/12/13 06:51:01;;;;;;;55.00;24.37;;;0.10;68.80;;;;;;2344690;57;21034;-46
2022/12/13 06:53:28;;;;;;;50.80;23.40;;;0.10;68.80;;;;;;2343809;57;21050;-53
2022/12/13 06:55:56;;;;;;;52.92;22.40;;;0.10;68.80;;;;;;2343922;57;21665;-46
2022/12/13 06:58:23;;;;;;;51.63;22.77;;;0.10;69.10;;;;;;2344411;57;21589;-49
2022/12/13 07:00:59;;;;;;;50.72;22.25;;;0.20;69.00;;;;;;2343126;57;21097;-48
2022/12/13 07:03:26;;;;;;;62.30;25.27;;;0.20;69.00;;;;;;2343925;57;21546;-49
2022/12/13 07:05:54;;;;;;;55.72;23.00;;;0.20;69.00;;;;;;2344453;57;21538;-46
2022/12/13 07:08:21;;;;;;;55.35;21.98;;;0.20;69.10;;;;;;2343376;57;21675;-52
2022/12/13 07:10:48;;;;;;;57.53;24.33;;;0.20;69.10;;;;;;2344273;57;21050;-48
2022/12/13 07:13:15;;;;;;;56.63;23.20;;;0.20;69.10;;;;;;2344602;57;21038;-51
2022/12/13 07:15:43;;;;;;;54.83;23.92;;;0.30;69.10;;;;;;2344422;57;21124;-48
2022/12/13 07:18:10;;;;;;;53.38;21.02;;;0.30;69.10;;;;;;2344178;57;21514;-47
2022/12/13 07:20:39;;;;;;;56.85;23.60;;;0.30;69.20;;;;;;2344652;57;21058;-49
2022/12/13 07:23:06;;;;;;;61.70;24.05;;;0.30;69.20;;;;;;2344818;57;21038;-49
2022/12/13 07:25:33;;;;;;;54.85;20.55;;;0.30;69.20;;;;;;2344415;57;21605;-52
2022/12/13 07:28:03;;;;;;;49.92;21.62;;;0.30;69.30;;;;;;2344479;57;21042;-49
2022/12/13 07:30:33;;;;;;;60.78;23.12;;;0.40;69.50;;;;;;2345352;57;21518;-46
2022/12/13 07:33:01;;;;;;;53.00;20.48;;;0.40;70.40;;;;;;2344856;57;21117;-48
2022/12/13 07:35:29;;;;;;;49.97;20.45;;;0.40;69.80;;;;;;2345265;57;21034;-46
2022/12/13 07:37:57;;;;;;;51.83;20.90;;;0.40;70.00;;;;;;2344613;57;21542;-48
2022/12/13 07:40:24;;;;;;;51.25;20.67;;;0.40;70.20;;;;;;2344696;57;21054;-50
2022/12/13 07:42:52;;;;;;;50.58;19.98;;;0.50;70.40;;;;;;2344115;57;21635;-48
2022/12/13 07:45:20;;;;;;;43.28;19.75;;;0.50;70.50;;;;;;2344859;57;22181;-50
2022/12/13 07:47:48;;;;;;;47.60;19.77;;;0.50;70.50;;;;;;2344005;57;21181;-47
2022/12/13 07:50:16;;;;;;;48.97;20.10;;;0.60;70.50;;;;;;2343773;57;21101;-47
2022/12/13 07:52:43;;;;;;;44.28;18.75;;;0.60;70.50;;;;;;2345508;57;21613;-48
2022/12/13 07:55:11;;;;;;;47.53;20.27;;;0.60;70.60;;;;;;2345377;57;21022;-49
2022/12/13 07:57:38;;;;;;;45.05;17.95;;;0.60;70.50;;;;;;2345691;57;21018;-48
2022/12/13 08:00:08;;;;;;;49.15;17.80;;;0.70;70.50;;;;;;2345535;57;21867;-47
2022/12/13 08:02:36;;;;;;;44.38;17.50;;;0.70;70.60;;;;;;2344379;57;21110;-49
2022/12/13 08:05:04;;;;;;;39.03;17.70;;;0.70;70.50;;;;;;2344577;57;21117;-46
2022/12/13 08:07:51;;;;;;;37.35;17.27;;;0.80;70.60;;;;;;2344541;57;22172;-48
2022/12/13 08:10:18;;;;;;;40.08;16.08;;;0.80;70.60;;;;;;2268055;59;21089;-55
2022/12/13 08:12:45;;;;;;;45.78;16.60;;;0.80;70.50;;;;;;2301059;55;21081;-54
2022/12/13 08:15:12;;;;;;;40.97;17.05;;;0.80;70.60;;;;;;2267317;59;22191;-51
2022/12/13 08:17:39;;;;;;;35.72;15.15;;;0.90;70.70;;;;;;2287325;55;21074;-51
2022/12/13 08:20:08;;;;;;;40.25;16.75;;;0.90;70.70;;;;;;2333455;54;21143;-54
2022/12/13 08:22:36;;;;;;;40.22;16.70;;;0.90;70.60;;;;;;2293603;58;21558;-49
2022/12/13 08:25:05;;;;;;;38.45;16.73;;;1.00;70.60;;;;;;2294094;58;21126;-53
2022/12/13 08:27:33;;;;;;;37.33;16.58;;;1.00;70.60;;;;;;2293947;58;21063;-56
2022/12/13 08:30:00;;;;;;;36.05;16.62;;;1.00;70.70;;;;;;2292327;58;22107;-53
2022/12/13 08:32:27;;;;;;;34.33;15.02;;;1.00;70.60;;;;;;2293342;58;21138;-53
2022/12/13 08:34:54;;;;;;;37.22;15.88;;;1.10;70.60;;;;;;2293731;58;21075;-51
2022/12/13 08:37:21;;;;;;;34.05;15.52;;;1.10;70.80;;;;;;2293271;58;21626;-53
2022/12/13 08:39:49;;;;;;;35.33;14.63;;;1.10;70.70;;;;;;2297224;54;21135;-52
2022/12/13 08:42:17;;;;;;;37.00;15.45;;;1.20;70.90;;;;;;2293326;58;21110;-49
2022/12/13 08:44:45;;;;;;;39.88;15.32;;;1.20;70.80;;;;;;2294208;58;21074;-56
2022/12/13 08:47:12;;;;;;;38.97;16.67;;;1.20;70.60;;;;;;2294263;58;21194;-57
2022/12/13 08:49:40;;;;;;;32.33;15.10;;;1.20;70.50;;;;;;2294245;58;21519;-52
2022/12/13 08:52:07;;;;;;;38.17;16.20;;;1.20;70.50;;;;;;2294824;58;21047;-50
2022/12/13 08:54:34;;;;;;;38.97;16.70;;;1.30;70.50;;;;;;2293594;58;21090;-52
2022/12/13 08:57:01;;;;;;;35.50;16.17;;;1.30;70.50;;;;;;2292754;58;21546;-50
2022/12/13 08:59:29;;;;;;;34.35;15.85;;;1.40;70.50;;;;;;2292704;58;21523;-53
2022/12/13 09:01:56;;;;;;;37.50;15.98;;;1.30;70.60;;;;;;2316078;54;21067;-51
2022/12/13 09:04:23;;;;;;;38.13;16.65;;;1.40;70.20;;;;;;2291724;58;21075;-53
2022/12/13 09:06:50;;;;;;;34.97;14.65;;;1.40;70.10;;;;;;2290918;58;21060;-57
2022/12/13 09:09:17;;;;;;;37.28;17.62;;;1.40;70.00;;;;;;2291570;58;21669;-51
2022/12/13 09:11:44;;;;;;;40.30;17.65;;;1.40;69.80;;;;;;2291767;58;21059;-50
2022/12/13 09:14:11;;;;;;;40.53;18.45;;;1.40;69.60;;;;;;2293138;58;21667;-54
2022/12/13 09:16:38;;;;;;;37.55;16.52;;;1.40;69.50;;;;;;2292731;58;21047;-52
2022/12/13 09:19:06;;;;;;;35.75;15.68;;;1.40;69.20;;;;;;2292213;58;21130;-52
2022/12/13 09:21:33;;;;;;;34.92;17.10;;;1.40;69.20;;;;;;2291434;58;22128;-49
2022/12/13 09:24:00;;;;;;;33.10;14.48;;;1.40;69.20;;;;;;2292386;58;21051;-55
2022/12/13 09:26:27;;;;;;;34.45;14.98;;;1.40;69.20;;;;;;2292290;58;21063;-58
2022/12/13 09:28:54;;;;;;;39.58;16.98;;;1.40;69.40;;;;;;2292828;58;21115;-55
2022/12/13 09:31:22;;;;;;;42.00;18.00;;;1.40;69.60;;;;;;2292936;58;21437;-50
2022/12/13 09:33:49;;;;;;;34.72;15.55;;;1.40;69.60;;;;;;2293324;58;21066;-49
2022/12/13 09:36:18;;;;;;;29.20;14.57;;;1.40;69.70;;;;;;2292736;58;21055;-52
2022/12/13 09:38:46;;;;;;;32.42;14.77;;;1.40;69.70;;;;;;2293933;58;21051;-55
2022/12/13 09:41:19;;;;;;;37.03;15.90;;;1.40;69.60;;;;;;2294273;58;21055;-52
2022/12/13 09:43:50;;;;;;;46.35;17.75;;;1.40;69.50;;;;;;2294380;58;21107;-51
2022/12/13 09:46:28;;;;;;;34.55;15.77;;;1.40;69.50;;;;;;2293946;58;21627;-53
2022/12/13 09:48:57;;;;;;;38.13;15.82;;;1.40;69.50;;;;;;2294180;58;21150;-52
2022/12/13 09:51:25;;;;;;;36.22;15.73;;;1.50;69.50;;;;;;2293149;58;21559;-56
2022/12/13 09:53:53;;;;;;;39.05;16.65;;;1.40;69.40;;;;;;2292869;58;21059;-52
2022/12/13 09:56:23;;;;;;;35.58;15.57;;;1.40;69.50;;;;;;2292583;58;21349;-51
2022/12/13 09:58:52;;;;;;;33.13;15.82;;;1.50;69.80;;;;;;2291563;58;21083;-55
2022/12/13 10:01:20;;;;;;;38.67;15.57;;;1.50;70.10;;;;;;2292027;58;21538;-54
2022/12/13 10:03:50;;;;;;;35.92;15.75;;;1.50;70.30;;;;;;2292593;58;21519;-54
2022/12/13 10:06:19;;;;;;;41.42;16.92;;;1.50;70.40;;;;;;2293408;58;21668;-53
2022/12/13 10:08:49;;;;;;;34.30;15.02;;;1.50;70.40;;;;;;2292329;58;21110;-53
2022/12/13 10:11:19;;;;;;;33.25;15.38;;;1.50;70.20;;;;;;2293090;58;21762;-62
2022/12/13 10:13:52;;;;;;;40.83;17.37;;;1.50;70.10;;;;;;2292027;58;21059;-62
2022/12/13 10:16:26;;;;;;;35.63;16.02;;;1.50;70.10;;;;;;2292340;58;21043;-53
2022/12/13 10:18:53;;;;;;;32.75;16.08;;;1.50;70.10;;;;;;2290226;58;21134;-55
2022/12/13 10:21:27;;;;;;;34.40;17.05;;;1.60;70.10;;;;;;2291359;58;21657;-57
2022/12/13 10:23:54;;;;;;;38.70;17.08;;;1.60;70.10;;;;;;2291097;58;21051;-51
2022/12/13 10:26:21;;;;;;;35.35;15.95;;;1.60;69.90;;;;;;2292946;58;21115;-53
2022/12/13 10:28:50;;;;;;;38.55;15.93;;;1.60;69.90;;;;;;2293480;58;21074;-55
2022/12/13 10:31:18;;;;;;;39.40;17.67;;;1.60;69.80;;;;;;2294593;58;21106;-54
2022/12/13 10:33:54;;;;;;;39.20;18.80;;;1.60;69.90;;;;;;2293632;58;21098;-54
2022/12/13 10:36:33;;;;;;;42.72;18.15;;;1.60;70.00;;;;;;2294603;58;21042;-51
2022/12/13 10:39:00;;;;;;;44.17;20.73;;;1.60;70.10;;;;;;2294059;58;21039;-56
2022/12/13 10:41:30;;;;;;;39.00;15.95;;;1.60;70.00;;;;;;2294232;58;21043;-52
2022/12/13 10:44:18;;;;;;;35.45;16.87;;;1.60;70.20;;;;;;2292536;58;21075;-55
2022/12/13 10:46:58;;;;;;;37.58;16.62;;;1.60;70.30;;;;;;2293013;58;21075;-51
2022/12/13 10:49:31;;;;;;;39.15;16.90;;;1.60;70.40;;;;;;2292325;58;21142;-50
2022/12/13 10:51:59;;;;;;;;;;;1.70;70.90;;;;;;2295758;58;21071;-51
2022/12/13 10:54:29;;;;;;;37.40;18.17;;;1.70;70.70;;;;;;2326739;54;20361;-55
2022/12/13 10:56:59;;;;;;;40.45;17.45;;;1.80;70.50;;;;;;2293731;58;21119;-55
2022/12/13 10:59:31;;;;;;;41.88;17.98;;;1.80;70.60;;;;;;2293087;58;21594;-54
2022/12/13 11:02:00;;;;;;;43.75;19.20;;;1.80;71.00;;;;;;2293874;58;21055;-51
2022/12/13 11:04:30;;;;;;;38.22;17.48;;;1.80;71.10;;;;;;2313301;54;21652;-55
2022/12/13 11:09:34;;;;;;;43.20;18.83;;;1.80;71.10;;;;;;2332561;57;20042;-53
2022/12/13 11:12:03;;;;;;;41.03;18.65;;;1.90;71.90;;;;;;2346599;57;22026;-57
2022/12/13 11:14:34;;;;;;;39.45;17.45;;;1.90;71.20;;;;;;2346321;57;21521;-56
2022/12/13 11:17:08;;;;;;;45.45;19.12;;;2.00;71.10;;;;;;2346305;57;21057;-54
2022/12/13 11:19:40;;;;;;;38.75;18.58;;;2.00;70.90;;;;;;2347346;57;21541;-57
2022/12/13 11:22:08;;;;;;;46.17;20.77;;;2.00;70.90;;;;;;2347572;57;21103;-54
2022/12/13 11:24:37;;;;;;;34.20;15.35;;;2.00;71.10;;;;;;2347241;57;21033;-56
2022/12/13 11:27:24;;;;;;;46.30;19.62;;;2.10;70.70;;;;;;2347532;57;21116;-54
2022/12/13 11:30:08;;;;;;;38.80;18.70;;;2.10;70.40;;;;;;2347749;57;21024;-56
2022/12/13 11:32:48;;;;;;;39.55;19.08;;;2.10;70.00;;;;;;2347154;57;21042;-57
2022/12/13 11:35:23;;;;;;;43.03;19.85;;;2.20;70.10;;;;;;2345920;57;22121;-53
2022/12/13 11:38:00;;;;;;;47.10;21.50;;;2.20;70.30;;;;;;2346584;57;21033;-53
2022/12/13 11:40:30;;;;;;;42.13;19.35;;;2.20;70.50;;;;;;2346268;57;21643;-57
2022/12/13 11:43:02;;;;;;;39.30;17.55;;;2.20;70.40;;;;;;2345873;57;21037;-56
2022/12/13 11:45:36;;;;;;;41.10;19.15;;;2.30;70.40;;;;;;2345658;57;21200;-54
2022/12/13 11:48:12;;;;;;;44.30;19.02;;;2.30;70.50;;;;;;2346888;56;21041;-56
2022/12/13 11:50:42;;;;;;;42.08;19.60;;;2.30;70.20;;;;;;2347157;57;21581;-54
2022/12/13 11:53:32;;;;;;;41.78;18.87;;;2.40;70.20;;;;;;2346242;57;21047;-55
2022/12/13 11:56:07;;;;;;;41.67;19.33;;;2.40;70.10;;;;;;2345948;57;21501;-54
2022/12/13 11:58:43;;;;;;;38.20;18.23;;;2.40;70.00;;;;;;2346123;57;21037;-58
2022/12/13 12:01:13;;;;;;;39.65;18.87;;;2.50;69.90;;;;;;2344124;57;21033;-57
2022/12/13 12:03:45;;;;;;;34.65;17.40;;;2.50;69.80;;;;;;2343638;57;21045;-56
2022/12/13 12:06:19;;;;;;;47.95;21.23;;;2.50;69.70;;;;;;2344844;57;21129;-54
2022/12/13 12:08:52;;;;;;;36.20;19.15;;;2.60;69.90;;;;;;2346868;57;21026;-60
2022/12/13 12:11:26;;;;;;;43.53;20.00;;;2.60;69.40;;;;;;2345414;57;21121;-56
2022/12/13 12:13:58;;;;;;;45.75;21.58;;;2.60;69.40;;;;;;2346262;57;21074;-56
2022/12/13 12:16:33;;;;;;;40.87;19.43;;;2.70;69.80;;;;;;2347524;57;21585;-54
2022/12/13 12:19:00;;;;;;;45.22;19.12;;;2.70;69.50;;;;;;2347046;57;21350;-56
2022/12/13 12:21:36;;;;;;;39.10;18.70;;;2.70;68.90;;;;;;2344629;57;21066;-57
2022/12/13 12:24:17;;;;;;;39.72;18.48;;;2.70;68.90;;;;;;2481471;53;21112;-52
2022/12/13 12:26:59;;;;;;;40.90;17.42;;;2.70;68.90;;;;;;2344319;57;21090;-61
2022/12/13 12:29:47;;;;;;;44.38;19.62;;;2.70;68.90;;;;;;2344439;57;21640;-57
2022/12/13 12:32:27;;;;;;;38.33;16.95;;;2.70;68.80;;;;;;2343527;57;22202;-57
2022/12/13 12:35:08;;;;;;;41.00;18.65;;;2.70;68.80;;;;;;2345222;57;21546;-59
2022/12/13 12:37:50;;;;;;;40.78;20.05;;;2.70;68.90;;;;;;2345934;57;21573;-59
2022/12/13 12:40:42;;;;;;;43.15;20.83;;;2.70;68.90;;;;;;2344298;57;21117;-53
2022/12/13 12:43:20;;;;;;;53.70;22.75;;;2.80;69.10;;;;;;2345051;57;21080;-57
2022/12/13 12:45:57;;;;;;;42.20;19.67;;;2.80;69.10;;;;;;2343467;57;21391;-58
2022/12/13 12:48:56;;;;;;;40.35;20.35;;;2.80;69.10;;;;;;2343959;57;22174;-61
2022/12/13 12:51:29;;;;;;;38.67;18.20;;;2.90;69.20;;;;;;2344283;57;21540;-58
2022/12/13 12:54:11;;;;;;;45.92;21.60;;;2.90;68.90;;;;;;2343676;57;21034;-53
2022/12/13 12:56:45;;;;;;;44.38;21.30;;;3.00;68.70;;;;;;2344548;57;21605;-55
2022/12/13 12:59:24;;;;;;;37.45;17.80;;;3.00;68.70;;;;;;2344408;57;21029;-53
2022/12/13 13:01:59;;;;;;;39.47;19.20;;;3.00;68.30;;;;;;2344200;57;21538;-54
2022/12/13 13:04:31;;;;;;;39.88;18.77;;;3.00;68.10;;;;;;2346226;57;21014;-55
2022/12/13 13:07:05;;;;;;;39.95;19.75;;;3.00;68.10;;;;;;2346566;57;21084;-55
2022/12/13 13:09:33;;;;;;;35.03;17.73;;;3.00;68.10;;;;;;2344942;57;21045;-53
2022/12/13 13:12:04;;;;;;;42.83;19.85;;;3.00;68.20;;;;;;2346298;57;21029;-59
2022/12/13 13:14:33;;;;;;;38.88;19.02;;;3.00;68.20;;;;;;2594136;53;21097;-58